sensor_id;sensor_type;location;lat;lon;timestamp;temperature;humidity
47148;DHT22;32900;47.498;8.738;2022-09-03T00:00:37;17.40;99.90
47148;DHT22;32900;47.498;8.738;2022-09-03T00:03:30;17.30;99.90
47148;DHT22;32900;47.498;8.738;2022-09-03T00:06:33;17.40;99.90
47148;DHT22;32900;47.498;8.738;2022-09-03T00:09:06;17.40;99.90
47148;DHT22;32900;47.498;8.738;2022-09-03T00:14:20;17.50;99.90
47148;DHT22;32900;47.498;8.738;2022-09-03T00:19:22;17.20;99.90
47148;DHT22;32900;47.498;8.738;2022-09-03T00:22:14;17.30;99.90
47148;DHT22;32900;47.498;8.738;2022-09-03T00:24:43;17.30;99.90
47148;DHT22;32900;47.498;8.738;2022-09-03T00:27:16;17.20;99.90
47148;DHT22;32900;47.498;8.738;2022-09-03T00:30:00;17.00;99.90
47148;DHT22;32900;47.498;8.738;2022-09-03T00:35:25;16.80;99.90
47148;DHT22;32900;47.498;8.738;2022-09-03T00:37:53;16.90;99.90
47148;DHT22;32900;47.498;8.738;2022-09-03T00:40:44;17.00;99.90
47148;DHT22;32900;47.498;8.738;2022-09-03T00:46:07;17.00;99.90
47148;DHT22;32900;47.498;8.738;2022-09-03T00:49:10;17.10;99.90
47148;DHT22;32900;47.498;8.738;2022-09-03T00:51:50;17.10;99.90
47148;DHT22;32900;47.498;8.738;2022-09-03T00:59:36;16.90;99.90
47148;DHT22;32900;47.498;8.738;2022-09-03T01:02:23;17.10;99.90
47148;DHT22;32900;47.498;8.738;2022-09-03T01:07:49;17.20;99.90
47148;DHT22;32900;47.498;8.738;2022-09-03T01:10:30;17.10;99.90
47148;DHT22;32900;47.498;8.738;2022-09-03T01:13:13;17.30;99.90
47148;DHT22;32900;47.498;8.738;2022-09-03T01:29:09;17.30;99.90
47148;DHT22;32900;47.498;8.738;2022-09-03T01:32:02;17.20;99.90
47148;DHT22;32900;47.498;8.738;2022-09-03T01:34:36;17.20;99.90
47148;DHT22;32900;47.498;8.738;2022-09-03T01:46:24;17.20;99.90
47148;DHT22;32900;47.498;8.738;2022-09-03T01:49:28;17.30;99.90
47148;DHT22;32900;47.498;8.738;2022-09-03T01:52:10;17.30;99.90
47148;DHT22;32900;47.498;8.738;2022-09-03T01:54:57;17.20;99.90
47148;DHT22;32900;47.498;8.738;2022-09-03T02:00:40;17.00;99.90
47148;DHT22;32900;47.498;8.738;2022-09-03T02:03:10;17.00;99.90
47148;DHT22;32900;47.498;8.738;2022-09-03T02:05:37;17.10;99.90
47148;DHT22;32900;47.498;8.738;2022-09-03T02:08:07;17.30;99.90
47148;DHT22;32900;47.498;8.738;2022-09-03T02:13:26;17.30;99.90
47148;DHT22;32900;47.498;8.738;2022-09-03T02:15:58;17.20;99.90
47148;DHT22;32900;47.498;8.738;2022-09-03T02:18:35;17.20;99.90
47148;DHT22;32900;47.498;8.738;2022-09-03T02:21:02;17.20;99.90
47148;DHT22;32900;47.498;8.738;2022-09-03T02:58:50;17.10;99.90
47148;DHT22;32900;47.498;8.738;2022-09-03T03:01:17;17.10;99.90
47148;DHT22;32900;47.498;8.738;2022-09-03T03:03:49;17.10;99.90
47148;DHT22;32900;47.498;8.738;2022-09-03T03:06:16;17.10;99.90
47148;DHT22;32900;47.498;8.738;2022-09-03T03:08:50;17.10;99.90
47148;DHT22;32900;47.498;8.738;2022-09-03T03:11:17;17.20;99.90
47148;DHT22;32900;47.498;8.738;2022-09-03T03:13:45;17.10;99.90
47148;DHT22;32900;47.498;8.738;2022-09-03T03:16:15;17.00;99.90
47148;DHT22;32900;47.498;8.738;2022-09-03T03:18:43;17.00;99.90
47148;DHT22;32900;47.498;8.738;2022-09-03T03:21:15;17.20;99.90
47148;DHT22;32900;47.498;8.738;2022-09-03T03:23:43;17.20;99.90
47148;DHT22;32900;47.498;8.738;2022-09-03T03:26:12;17.10;99.90
47148;DHT22;32900;47.498;8.738;2022-09-03T03:28:39;17.20;99.90
47148;DHT22;32900;47.498;8.738;2022-09-03T03:31:10;17.10;99.90
47148;DHT22;32900;47.498;8.738;2022-09-03T03:33:38;17.10;99.90
47148;DHT22;32900;47.498;8.738;2022-09-03T03:36:13;17.00;99.90
47148;DHT22;32900;47.498;8.738;2022-09-03T03:38:42;16.80;99.90
47148;DHT22;32900;47.498;8.738;2022-09-03T03:43:37;16.90;99.90
47148;DHT22;32900;47.498;8.738;2022-09-03T03:46:04;17.00;99.90
47148;DHT22;32900;47.498;8.738;2022-09-03T03:48:31;17.10;99.90
47148;DHT22;32900;47.498;8.738;2022-09-03T03:51:02;17.10;99.90
47148;DHT22;32900;47.498;8.738;2022-09-03T03:53:30;17.10;99.90
47148;DHT22;32900;47.498;8.738;2022-09-03T03:55:58;17.20;99.90
47148;DHT22;32900;47.498;8.738;2022-09-03T03:58:27;17.20;99.90
47148;DHT22;32900;47.498;8.738;2022-09-03T04:00:54;17.20;99.90
47148;DHT22;32900;47.498;8.738;2022-09-03T04:03:21;17.20;99.90
47148;DHT22;32900;47.498;8.738;2022-09-03T04:05:58;17.20;99.90
47148;DHT22;32900;47.498;8.738;2022-09-03T04:08:27;17.10;99.90
47148;DHT22;32900;47.498;8.738;2022-09-03T04:10:59;17.20;99.90
47148;DHT22;32900;47.498;8.738;2022-09-03T04:13:30;17.20;99.90
47148;DHT22;32900;47.498;8.738;2022-09-03T04:16:09;17.20;99.90
47148;DHT22;32900;47.498;8.738;2022-09-03T04:18:37;17.20;99.90
47148;DHT22;32900;47.498;8.738;2022-09-03T04:21:09;17.20;99.90
47148;DHT22;32900;47.498;8.738;2022-09-03T04:23:40;17.30;99.90
47148;DHT22;32900;47.498;8.738;2022-09-03T04:26:08;17.10;99.90
47148;DHT22;32900;47.498;8.738;2022-09-03T04:28:35;17.00;99.90
47148;DHT22;32900;47.498;8.738;2022-09-03T04:31:07;16.90;99.90
47148;DHT22;32900;47.498;8.738;2022-09-03T04:33:35;16.90;99.90
47148;DHT22;32900;47.498;8.738;2022-09-03T04:36:17;17.00;99.90
47148;DHT22;32900;47.498;8.738;2022-09-03T04:38:46;17.20;99.90
47148;DHT22;32900;47.498;8.738;2022-09-03T04:41:18;17.20;99.90
47148;DHT22;32900;47.498;8.738;2022-09-03T04:43:45;17.20;99.90
47148;DHT22;32900;47.498;8.738;2022-09-03T04:46:18;17.10;99.90
47148;DHT22;32900;47.498;8.738;2022-09-03T04:48:48;17.00;99.90
47148;DHT22;32900;47.498;8.738;2022-09-03T04:51:22;17.10;99.90
47148;DHT22;32900;47.498;8.738;2022-09-03T04:53:52;17.10;99.90
47148;DHT22;32900;47.498;8.738;2022-09-03T04:56:24;17.00;99.90
47148;DHT22;32900;47.498;8.738;2022-09-03T04:58:58;17.00;99.90
47148;DHT22;32900;47.498;8.738;2022-09-03T05:01:29;17.10;99.90
47148;DHT22;32900;47.498;8.738;2022-09-03T05:03:58;17.10;99.90
47148;DHT22;32900;47.498;8.738;2022-09-03T05:06:26;16.80;99.90
47148;DHT22;32900;47.498;8.738;2022-09-03T05:08:54;16.90;99.90
47148;DHT22;32900;47.498;8.738;2022-09-03T05:11:22;16.90;99.90
47148;DHT22;32900;47.498;8.738;2022-09-03T05:13:50;16.90;99.90
47148;DHT22;32900;47.498;8.738;2022-09-03T05:16:18;17.00;99.90
47148;DHT22;32900;47.498;8.738;2022-09-03T05:18:46;17.10;99.90
47148;DHT22;32900;47.498;8.738;2022-09-03T05:21:15;17.00;99.90
47148;DHT22;32900;47.498;8.738;2022-09-03T05:23:45;17.00;99.90
47148;DHT22;32900;47.498;8.738;2022-09-03T05:26:15;17.20;99.90
47148;DHT22;32900;47.498;8.738;2022-09-03T05:28:42;17.20;99.90
47148;DHT22;32900;47.498;8.738;2022-09-03T05:31:14;17.20;99.90
47148;DHT22;32900;47.498;8.738;2022-09-03T05:33:44;17.20;99.90
47148;DHT22;32900;47.498;8.738;2022-09-03T05:36:16;17.30;99.90
47148;DHT22;32900;47.498;8.738;2022-09-03T05:38:44;17.30;99.90
47148;DHT22;32900;47.498;8.738;2022-09-03T05:41:12;17.30;99.90
47148;DHT22;32900;47.498;8.738;2022-09-03T05:43:40;17.20;99.90
47148;DHT22;32900;47.498;8.738;2022-09-03T05:46:09;17.20;99.90
47148;DHT22;32900;47.498;8.738;2022-09-03T05:48:39;16.90;99.90
47148;DHT22;32900;47.498;8.738;2022-09-03T05:51:11;17.00;99.90
47148;DHT22;32900;47.498;8.738;2022-09-03T05:53:39;17.10;99.90
47148;DHT22;32900;47.498;8.738;2022-09-03T05:56:09;17.10;99.90
47148;DHT22;32900;47.498;8.738;2022-09-03T05:58:39;17.20;99.90
47148;DHT22;32900;47.498;8.738;2022-09-03T06:01:35;17.20;99.90
47148;DHT22;32900;47.498;8.738;2022-09-03T06:04:03;17.30;99.90
47148;DHT22;32900;47.498;8.738;2022-09-03T06:06:32;17.20;99.90
47148;DHT22;32900;47.498;8.738;2022-09-03T06:09:02;17.10;99.90
47148;DHT22;32900;47.498;8.738;2022-09-03T06:11:31;17.20;99.90
47148;DHT22;32900;47.498;8.738;2022-09-03T06:14:00;17.20;99.90
47148;DHT22;32900;47.498;8.738;2022-09-03T06:16:28;17.30;99.90
47148;DHT22;32900;47.498;8.738;2022-09-03T06:18:58;17.30;99.90
47148;DHT22;32900;47.498;8.738;2022-09-03T06:21:25;17.30;99.90
47148;DHT22;32900;47.498;8.738;2022-09-03T06:23:53;17.30;99.90
47148;DHT22;32900;47.498;8.738;2022-09-03T06:26:27;17.30;99.90
47148;DHT22;32900;47.498;8.738;2022-09-03T06:28:55;17.30;99.90
47148;DHT22;32900;47.498;8.738;2022-09-03T06:31:22;17.30;99.90
47148;DHT22;32900;47.498;8.738;2022-09-03T06:33:49;17.40;99.90
47148;DHT22;32900;47.498;8.738;2022-09-03T06:36:18;17.50;99.90
47148;DHT22;32900;47.498;8.738;2022-09-03T06:38:46;17.50;99.90
47148;DHT22;32900;47.498;8.738;2022-09-03T06:41:15;17.50;99.90
47148;DHT22;32900;47.498;8.738;2022-09-03T06:43:47;17.50;99.90
47148;DHT22;32900;47.498;8.738;2022-09-03T06:46:16;17.50;99.90
47148;DHT22;32900;47.498;8.738;2022-09-03T06:48:44;17.60;99.90
47148;DHT22;32900;47.498;8.738;2022-09-03T06:51:14;17.40;99.90
47148;DHT22;32900;47.498;8.738;2022-09-03T06:53:47;17.50;99.90
47148;DHT22;32900;47.498;8.738;2022-09-03T06:56:18;17.40;99.90
47148;DHT22;32900;47.498;8.738;2022-09-03T06:58:48;17.60;99.90
47148;DHT22;32900;47.498;8.738;2022-09-03T07:01:21;17.60;99.90
47148;DHT22;32900;47.498;8.738;2022-09-03T07:03:56;17.60;99.90
47148;DHT22;32900;47.498;8.738;2022-09-03T07:06:24;17.60;99.90
47148;DHT22;32900;47.498;8.738;2022-09-03T07:08:53;17.70;99.90
47148;DHT22;32900;47.498;8.738;2022-09-03T07:11:21;17.70;99.90
47148;DHT22;32900;47.498;8.738;2022-09-03T07:13:52;17.70;99.90
47148;DHT22;32900;47.498;8.738;2022-09-03T07:16:32;17.70;99.90
47148;DHT22;32900;47.498;8.738;2022-09-03T07:18:59;17.80;99.90
47148;DHT22;32900;47.498;8.738;2022-09-03T07:21:28;17.90;99.90
47148;DHT22;32900;47.498;8.738;2022-09-03T07:23:56;17.80;99.90
47148;DHT22;32900;47.498;8.738;2022-09-03T07:26:29;17.90;99.90
47148;DHT22;32900;47.498;8.738;2022-09-03T07:28:57;17.90;99.90
47148;DHT22;32900;47.498;8.738;2022-09-03T07:31:31;18.00;99.90
47148;DHT22;32900;47.498;8.738;2022-09-03T07:34:00;18.10;99.90
47148;DHT22;32900;47.498;8.738;2022-09-03T07:36:36;18.00;99.90
47148;DHT22;32900;47.498;8.738;2022-09-03T07:39:08;18.20;99.90
47148;DHT22;32900;47.498;8.738;2022-09-03T07:41:37;18.30;99.90
47148;DHT22;32900;47.498;8.738;2022-09-03T07:44:04;18.20;99.90
47148;DHT22;32900;47.498;8.738;2022-09-03T07:46:33;18.10;99.90
47148;DHT22;32900;47.498;8.738;2022-09-03T07:49:00;18.40;99.90
47148;DHT22;32900;47.498;8.738;2022-09-03T07:51:31;18.50;99.90
47148;DHT22;32900;47.498;8.738;2022-09-03T07:54:00;18.60;99.90
47148;DHT22;32900;47.498;8.738;2022-09-03T07:56:30;18.60;99.90
47148;DHT22;32900;47.498;8.738;2022-09-03T07:58:57;18.50;99.90
47148;DHT22;32900;47.498;8.738;2022-09-03T08:01:27;18.70;99.90
47148;DHT22;32900;47.498;8.738;2022-09-03T08:03:54;18.70;99.90
47148;DHT22;32900;47.498;8.738;2022-09-03T08:06:24;18.80;99.90
47148;DHT22;32900;47.498;8.738;2022-09-03T08:08:55;18.70;99.90
47148;DHT22;32900;47.498;8.738;2022-09-03T08:11:32;18.60;99.90
47148;DHT22;32900;47.498;8.738;2022-09-03T08:14:05;18.90;99.90
47148;DHT22;32900;47.498;8.738;2022-09-03T08:16:40;19.00;99.90
47148;DHT22;32900;47.498;8.738;2022-09-03T08:19:08;19.00;99.90
47148;DHT22;32900;47.498;8.738;2022-09-03T08:21:36;18.70;99.90
47148;DHT22;32900;47.498;8.738;2022-09-03T08:24:03;18.80;99.90
47148;DHT22;32900;47.498;8.738;2022-09-03T08:26:34;18.80;99.90
47148;DHT22;32900;47.498;8.738;2022-09-03T08:29:01;18.70;99.90
47148;DHT22;32900;47.498;8.738;2022-09-03T08:31:28;18.70;99.90
47148;DHT22;32900;47.498;8.738;2022-09-03T08:33:57;18.70;99.90
47148;DHT22;32900;47.498;8.738;2022-09-03T08:36:27;18.90;99.90
47148;DHT22;32900;47.498;8.738;2022-09-03T08:39:00;19.00;99.90
47148;DHT22;32900;47.498;8.738;2022-09-03T08:46:59;18.90;99.90
47148;DHT22;32900;47.498;8.738;2022-09-03T08:52:05;19.10;99.90
47148;DHT22;32900;47.498;8.738;2022-09-03T08:54:35;19.30;99.90
47148;DHT22;32900;47.498;8.738;2022-09-03T08:57:02;19.40;99.90
47148;DHT22;32900;47.498;8.738;2022-09-03T08:59:30;19.50;99.90
47148;DHT22;32900;47.498;8.738;2022-09-03T09:02:16;19.70;99.90
47148;DHT22;32900;47.498;8.738;2022-09-03T09:05:08;19.60;99.90
47148;DHT22;32900;47.498;8.738;2022-09-03T09:08:13;19.60;99.90
47148;DHT22;32900;47.498;8.738;2022-09-03T09:10:47;19.70;99.90
47148;DHT22;32900;47.498;8.738;2022-09-03T09:13:45;19.80;99.90
47148;DHT22;32900;47.498;8.738;2022-09-03T09:16:21;19.90;99.90
47148;DHT22;32900;47.498;8.738;2022-09-03T09:19:23;20.10;99.90
47148;DHT22;32900;47.498;8.738;2022-09-03T09:22:19;20.10;99.90
47148;DHT22;32900;47.498;8.738;2022-09-03T09:24:49;19.90;99.90
47148;DHT22;32900;47.498;8.738;2022-09-03T09:27:18;20.20;99.90
47148;DHT22;32900;47.498;8.738;2022-09-03T09:29:48;20.40;99.90
47148;DHT22;32900;47.498;8.738;2022-09-03T09:32:18;20.10;99.90
47148;DHT22;32900;47.498;8.738;2022-09-03T09:34:47;20.10;99.90
47148;DHT22;32900;47.498;8.738;2022-09-03T09:37:18;19.90;99.90
47148;DHT22;32900;47.498;8.738;2022-09-03T09:39:59;19.80;99.90
47148;DHT22;32900;47.498;8.738;2022-09-03T09:42:26;19.80;99.90
47148;DHT22;32900;47.498;8.738;2022-09-03T09:44:56;19.70;99.90
47148;DHT22;32900;47.498;8.738;2022-09-03T09:47:27;19.80;99.90
47148;DHT22;32900;47.498;8.738;2022-09-03T09:49:59;19.90;99.90
47148;DHT22;32900;47.498;8.738;2022-09-03T09:52:27;19.80;99.90
47148;DHT22;32900;47.498;8.738;2022-09-03T09:55:16;19.50;99.90
47148;DHT22;32900;47.498;8.738;2022-09-03T09:57:44;19.40;99.90
47148;DHT22;32900;47.498;8.738;2022-09-03T10:00:13;19.40;99.90
47148;DHT22;32900;47.498;8.738;2022-09-03T10:02:52;19.30;99.90
47148;DHT22;32900;47.498;8.738;2022-09-03T10:05:31;19.30;99.90
47148;DHT22;32900;47.498;8.738;2022-09-03T10:08:20;19.30;99.90
47148;DHT22;32900;47.498;8.738;2022-09-03T10:10:49;19.30;99.90
47148;DHT22;32900;47.498;8.738;2022-09-03T10:13:17;19.30;99.90
47148;DHT22;32900;47.498;8.738;2022-09-03T10:15:57;19.20;99.90
47148;DHT22;32900;47.498;8.738;2022-09-03T10:18:38;19.20;99.90
47148;DHT22;32900;47.498;8.738;2022-09-03T10:21:17;19.00;99.90
47148;DHT22;32900;47.498;8.738;2022-09-03T10:26:35;19.20;99.90
47148;DHT22;32900;47.498;8.738;2022-09-03T10:29:05;19.20;99.90
47148;DHT22;32900;47.498;8.738;2022-09-03T10:37:22;19.00;99.90
47148;DHT22;32900;47.498;8.738;2022-09-03T10:42:52;19.10;99.90
47148;DHT22;32900;47.498;8.738;2022-09-03T10:45:57;19.00;99.90
47148;DHT22;32900;47.498;8.738;2022-09-03T10:51:18;19.40;99.90
47148;DHT22;32900;47.498;8.738;2022-09-03T11:00:03;19.30;99.90
47148;DHT22;32900;47.498;8.738;2022-09-03T11:02:24;19.30;99.90
47148;DHT22;32900;47.498;8.738;2022-09-03T11:05:04;19.50;99.90
47148;DHT22;32900;47.498;8.738;2022-09-03T11:07:39;19.50;99.90
47148;DHT22;32900;47.498;8.738;2022-09-03T11:10:18;19.30;99.90
47148;DHT22;32900;47.498;8.738;2022-09-03T11:13:11;19.00;99.90
47148;DHT22;32900;47.498;8.738;2022-09-03T11:15:57;19.10;99.90
47148;DHT22;32900;47.498;8.738;2022-09-03T11:18:31;19.20;99.90
47148;DHT22;32900;47.498;8.738;2022-09-03T11:21:03;19.30;99.90
47148;DHT22;32900;47.498;8.738;2022-09-03T11:23:39;19.40;99.90
47148;DHT22;32900;47.498;8.738;2022-09-03T11:26:10;19.30;99.90
47148;DHT22;32900;47.498;8.738;2022-09-03T11:32:07;20.10;99.90
47148;DHT22;32900;47.498;8.738;2022-09-03T11:34:50;19.90;99.90
47148;DHT22;32900;47.498;8.738;2022-09-03T11:37:24;20.20;99.90
47148;DHT22;32900;47.498;8.738;2022-09-03T11:40:56;20.00;99.90
47148;DHT22;32900;47.498;8.738;2022-09-03T11:42:52;20.10;99.90
47148;DHT22;32900;47.498;8.738;2022-09-03T11:47:57;20.10;99.90
47148;DHT22;32900;47.498;8.738;2022-09-03T11:50:30;20.30;99.90
47148;DHT22;32900;47.498;8.738;2022-09-03T11:53:23;20.70;99.90
47148;DHT22;32900;47.498;8.738;2022-09-03T11:55:52;20.70;99.90
47148;DHT22;32900;47.498;8.738;2022-09-03T11:58:27;20.70;99.90
47148;DHT22;32900;47.498;8.738;2022-09-03T12:00:56;21.40;99.90
47148;DHT22;32900;47.498;8.738;2022-09-03T12:03:28;21.00;99.90
47148;DHT22;32900;47.498;8.738;2022-09-03T12:19:54;21.80;99.90
47148;DHT22;32900;47.498;8.738;2022-09-03T12:22:24;22.10;99.90
47148;DHT22;32900;47.498;8.738;2022-09-03T12:24:51;21.80;99.90
47148;DHT22;32900;47.498;8.738;2022-09-03T12:27:23;21.70;99.90
47148;DHT22;32900;47.498;8.738;2022-09-03T12:29:59;21.50;99.90
47148;DHT22;32900;47.498;8.738;2022-09-03T12:32:35;21.70;99.90
47148;DHT22;32900;47.498;8.738;2022-09-03T12:35:17;22.20;99.90
47148;DHT22;32900;47.498;8.738;2022-09-03T12:38:04;23.00;99.90
47148;DHT22;32900;47.498;8.738;2022-09-03T12:40:40;23.00;99.90
47148;DHT22;32900;47.498;8.738;2022-09-03T12:43:28;23.30;99.90
47148;DHT22;32900;47.498;8.738;2022-09-03T12:46:04;23.10;99.90
47148;DHT22;32900;47.498;8.738;2022-09-03T12:48:54;23.00;99.90
47148;DHT22;32900;47.498;8.738;2022-09-03T12:51:41;22.60;99.90
47148;DHT22;32900;47.498;8.738;2022-09-03T12:54:19;21.90;99.90
47148;DHT22;32900;47.498;8.738;2022-09-03T12:56:52;21.80;99.90
47148;DHT22;32900;47.498;8.738;2022-09-03T12:59:20;22.20;99.90
47148;DHT22;32900;47.498;8.738;2022-09-03T13:01:55;22.70;99.90
47148;DHT22;32900;47.498;8.738;2022-09-03T13:04:28;23.10;99.90
47148;DHT22;32900;47.498;8.738;2022-09-03T13:07:03;24.00;99.90
47148;DHT22;32900;47.498;8.738;2022-09-03T13:09:33;22.70;99.90
47148;DHT22;32900;47.498;8.738;2022-09-03T13:12:01;23.30;99.90
47148;DHT22;32900;47.498;8.738;2022-09-03T13:14:44;23.70;99.90
47148;DHT22;32900;47.498;8.738;2022-09-03T13:20:19;24.20;99.90
47148;DHT22;32900;47.498;8.738;2022-09-03T13:25:26;24.70;99.90
47148;DHT22;32900;47.498;8.738;2022-09-03T13:31:10;24.30;99.90
47148;DHT22;32900;47.498;8.738;2022-09-03T13:33:56;24.70;99.90
47148;DHT22;32900;47.498;8.738;2022-09-03T13:36:29;24.10;99.90
47148;DHT22;32900;47.498;8.738;2022-09-03T13:39:26;23.90;99.90
47148;DHT22;32900;47.498;8.738;2022-09-03T13:42:05;23.80;99.90
47148;DHT22;32900;47.498;8.738;2022-09-03T13:50:10;25.40;99.90
47148;DHT22;32900;47.498;8.738;2022-09-03T13:53:18;26.50;99.90
47148;DHT22;32900;47.498;8.738;2022-09-03T13:55:49;26.70;99.90
47148;DHT22;32900;47.498;8.738;2022-09-03T13:58:36;25.90;99.90
47148;DHT22;32900;47.498;8.738;2022-09-03T14:04:24;26.10;99.90
47148;DHT22;32900;47.498;8.738;2022-09-03T14:07:07;25.90;99.90
47148;DHT22;32900;47.498;8.738;2022-09-03T14:09:47;25.20;99.90
47148;DHT22;32900;47.498;8.738;2022-09-03T14:15:29;24.90;99.90
47148;DHT22;32900;47.498;8.738;2022-09-03T14:21:13;25.60;99.90
47148;DHT22;32900;47.498;8.738;2022-09-03T14:24:03;25.80;99.90
47148;DHT22;32900;47.498;8.738;2022-09-03T14:26:33;25.30;99.90
47148;DHT22;32900;47.498;8.738;2022-09-03T14:34:55;27.30;99.90
47148;DHT22;32900;47.498;8.738;2022-09-03T14:40:41;26.90;99.90
47148;DHT22;32900;47.498;8.738;2022-09-03T15:10:59;28.10;99.90
47148;DHT22;32900;47.498;8.738;2022-09-03T15:13:33;28.50;99.90
47148;DHT22;32900;47.498;8.738;2022-09-03T15:16:31;28.90;99.90
47148;DHT22;32900;47.498;8.738;2022-09-03T15:19:34;28.90;99.90
47148;DHT22;32900;47.498;8.738;2022-09-03T15:33:32;28.20;99.90
47148;DHT22;32900;47.498;8.738;2022-09-03T15:36:10;28.00;99.90
47148;DHT22;32900;47.498;8.738;2022-09-03T15:38:48;28.40;99.90
47148;DHT22;32900;47.498;8.738;2022-09-03T15:41:38;28.70;99.90
47148;DHT22;32900;47.498;8.738;2022-09-03T15:44:16;28.70;99.90
47148;DHT22;32900;47.498;8.738;2022-09-03T15:49:47;28.30;99.90
47148;DHT22;32900;47.498;8.738;2022-09-03T15:52:30;28.30;99.90
47148;DHT22;32900;47.498;8.738;2022-09-03T15:58:03;26.50;99.90
47148;DHT22;32900;47.498;8.738;2022-09-03T16:03:16;24.90;99.90
47148;DHT22;32900;47.498;8.738;2022-09-03T16:09:19;24.50;99.90
47148;DHT22;32900;47.498;8.738;2022-09-03T16:12:00;24.10;99.90
47148;DHT22;32900;47.498;8.738;2022-09-03T16:14:42;24.00;99.90
47148;DHT22;32900;47.498;8.738;2022-09-03T16:17:25;24.10;99.90
47148;DHT22;32900;47.498;8.738;2022-09-03T16:20:01;24.10;99.90
47148;DHT22;32900;47.498;8.738;2022-09-03T16:22:55;24.00;99.90
47148;DHT22;32900;47.498;8.738;2022-09-03T16:25:21;23.80;99.90
47148;DHT22;32900;47.498;8.738;2022-09-03T16:27:59;23.70;99.90
47148;DHT22;32900;47.498;8.738;2022-09-03T16:33:40;23.40;99.90
47148;DHT22;32900;47.498;8.738;2022-09-03T16:47:16;22.90;99.90
47148;DHT22;32900;47.498;8.738;2022-09-03T16:50:04;22.90;99.90
47148;DHT22;32900;47.498;8.738;2022-09-03T17:04:08;22.80;99.90
47148;DHT22;32900;47.498;8.738;2022-09-03T17:06:53;22.70;99.90
47148;DHT22;32900;47.498;8.738;2022-09-03T17:12:26;22.50;99.90
47148;DHT22;32900;47.498;8.738;2022-09-03T17:18:15;22.20;99.90
47148;DHT22;32900;47.498;8.738;2022-09-03T17:26:28;22.10;99.90
47148;DHT22;32900;47.498;8.738;2022-09-03T17:31:48;22.00;99.90
47148;DHT22;32900;47.498;8.738;2022-09-03T17:51:02;21.30;99.90
47148;DHT22;32900;47.498;8.738;2022-09-03T17:53:53;21.30;99.90
47148;DHT22;32900;47.498;8.738;2022-09-03T17:56:32;21.20;99.90
47148;DHT22;32900;47.498;8.738;2022-09-03T17:59:13;21.10;99.90
47148;DHT22;32900;47.498;8.738;2022-09-03T18:02:00;21.00;99.90
47148;DHT22;32900;47.498;8.738;2022-09-03T18:09:57;20.80;99.90
47148;DHT22;32900;47.498;8.738;2022-09-03T18:15:17;20.70;99.90
47148;DHT22;32900;47.498;8.738;2022-09-03T18:17:57;20.60;99.90
47148;DHT22;32900;47.498;8.738;2022-09-03T18:20:26;20.50;99.90
47148;DHT22;32900;47.498;8.738;2022-09-03T18:23:51;20.50;99.90
47148;DHT22;32900;47.498;8.738;2022-09-03T18:26:54;20.20;99.90
47148;DHT22;32900;47.498;8.738;2022-09-03T18:29:47;20.30;99.90
47148;DHT22;32900;47.498;8.738;2022-09-03T18:32:33;20.30;99.90
47148;DHT22;32900;47.498;8.738;2022-09-03T18:35:18;20.20;99.90
47148;DHT22;32900;47.498;8.738;2022-09-03T18:38:04;20.20;99.90
47148;DHT22;32900;47.498;8.738;2022-09-03T18:41:27;20.00;99.90
47148;DHT22;32900;47.498;8.738;2022-09-03T18:44:26;19.90;99.90
47148;DHT22;32900;47.498;8.738;2022-09-03T18:50:40;19.70;99.90
47148;DHT22;32900;47.498;8.738;2022-09-03T18:56:51;19.80;99.90
47148;DHT22;32900;47.498;8.738;2022-09-03T19:09:02;19.70;99.90
47148;DHT22;32900;47.498;8.738;2022-09-03T19:15:40;19.40;99.90
47148;DHT22;32900;47.498;8.738;2022-09-03T19:18:09;19.50;99.90
47148;DHT22;32900;47.498;8.738;2022-09-03T19:23:59;19.40;99.90
47148;DHT22;32900;47.498;8.738;2022-09-03T19:27:14;19.30;99.90
47148;DHT22;32900;47.498;8.738;2022-09-03T19:30:31;19.30;99.90
47148;DHT22;32900;47.498;8.738;2022-09-03T19:33:39;19.20;99.90
47148;DHT22;32900;47.498;8.738;2022-09-03T19:36:48;19.10;99.90
47148;DHT22;32900;47.498;8.738;2022-09-03T19:46:11;19.10;99.90
47148;DHT22;32900;47.498;8.738;2022-09-03T19:55:24;19.10;99.90
47148;DHT22;32900;47.498;8.738;2022-09-03T19:58:12;18.90;99.90
47148;DHT22;32900;47.498;8.738;2022-09-03T20:01:09;18.90;99.90
47148;DHT22;32900;47.498;8.738;2022-09-03T20:03:58;18.80;99.90
47148;DHT22;32900;47.498;8.738;2022-09-03T20:06:45;18.80;99.90
47148;DHT22;32900;47.498;8.738;2022-09-03T20:09:35;18.80;99.90
47148;DHT22;32900;47.498;8.738;2022-09-03T20:12:23;18.80;99.90
47148;DHT22;32900;47.498;8.738;2022-09-03T20:14:50;18.90;99.90
47148;DHT22;32900;47.498;8.738;2022-09-03T20:17:36;18.90;99.90
47148;DHT22;32900;47.498;8.738;2022-09-03T20:23:03;18.80;99.90
47148;DHT22;32900;47.498;8.738;2022-09-03T20:28:36;18.80;99.90
47148;DHT22;32900;47.498;8.738;2022-09-03T20:31:16;18.80;99.90
47148;DHT22;32900;47.498;8.738;2022-09-03T20:36:46;18.60;99.90
47148;DHT22;32900;47.498;8.738;2022-09-03T20:39:31;18.60;99.90
47148;DHT22;32900;47.498;8.738;2022-09-03T20:48:47;18.50;99.90
47148;DHT22;32900;47.498;8.738;2022-09-03T20:51:24;18.40;99.90
47148;DHT22;32900;47.498;8.738;2022-09-03T20:54:08;18.30;99.90
47148;DHT22;32900;47.498;8.738;2022-09-03T20:59:36;18.30;99.90
47148;DHT22;32900;47.498;8.738;2022-09-03T21:02:32;18.30;99.90
47148;DHT22;32900;47.498;8.738;2022-09-03T21:05:24;18.20;99.90
47148;DHT22;32900;47.498;8.738;2022-09-03T21:10:56;18.20;99.90
47148;DHT22;32900;47.498;8.738;2022-09-03T21:13:39;18.20;99.90
47148;DHT22;32900;47.498;8.738;2022-09-03T21:24:10;18.10;99.90
47148;DHT22;32900;47.498;8.738;2022-09-03T21:26:40;18.00;99.90
47148;DHT22;32900;47.498;8.738;2022-09-03T21:29:13;18.00;99.90
47148;DHT22;32900;47.498;8.738;2022-09-03T21:31:53;17.90;99.90
47148;DHT22;32900;47.498;8.738;2022-09-03T21:37:36;17.90;99.90
47148;DHT22;32900;47.498;8.738;2022-09-03T21:40:06;17.80;99.90
47148;DHT22;32900;47.498;8.738;2022-09-03T21:43:13;17.90;99.90
47148;DHT22;32900;47.498;8.738;2022-09-03T21:45:54;17.80;99.90
47148;DHT22;32900;47.498;8.738;2022-09-03T21:51:36;17.80;99.90
47148;DHT22;32900;47.498;8.738;2022-09-03T21:54:16;17.80;99.90
47148;DHT22;32900;47.498;8.738;2022-09-03T22:02:23;17.70;99.90
47148;DHT22;32900;47.498;8.738;2022-09-03T22:04:51;17.70;99.90
47148;DHT22;32900;47.498;8.738;2022-09-03T22:10:20;17.60;99.90
47148;DHT22;32900;47.498;8.738;2022-09-03T22:13:03;17.50;99.90
47148;DHT22;32900;47.498;8.738;2022-09-03T22:15:37;17.50;99.90
47148;DHT22;32900;47.498;8.738;2022-09-03T22:20:46;17.40;99.90
47148;DHT22;32900;47.498;8.738;2022-09-03T22:23:31;17.40;99.90
47148;DHT22;32900;47.498;8.738;2022-09-03T22:26:20;17.40;99.90
47148;DHT22;32900;47.498;8.738;2022-09-03T22:29:01;17.40;99.90
47148;DHT22;32900;47.498;8.738;2022-09-03T22:37:22;17.40;99.90